.
WxDataArchive / Data Records for 2007-04-22
2007-04-21 April 2007 2007-04-23

Data Records for Sunday, 22 April 2007

Time	Temp	Chill	HIndex	Humid	Dewpt	 Wind 	HiWind	WindDir	Rain 	Barom 
-----	----	-----	------	-----	-----	------	------	-------	-----	----- 
00:00	47.7	47.7	47.7	67	37.3	0	0	---	0.00	30.081 
00:05	47.6	47.6	47.6	67	37.2	0	0	---	0.00	30.079 
00:10	47.4	47.4	47.4	67	37.0	0	0	---	0.00	30.079 
00:15	47.3	47.3	47.3	68	37.3	0	0	---	0.00	30.077 
00:20	47.1	47.1	47.1	69	37.5	0	0	---	0.00	30.077 
00:25	47.0	47.0	47.0	70	37.7	0	0	---	0.00	30.077 
00:30	47.0	47.0	47.0	73	38.8	0	0	---	0.00	30.077 
00:35	47.0	47.0	47.0	74	39.1	0	0	---	0.00	30.076 
00:40	47.0	47.0	47.0	78	40.5	0	0	---	0.00	30.076 
00:45	47.0	47.0	47.0	81	41.5	0	0	---	0.00	30.074 
00:50	47.0	47.0	47.0	83	42.1	0	0	---	0.00	30.075 
00:55	47.0	47.0	47.0	84	42.4	0	0	---	0.00	30.074 
01:00	46.7	46.7	46.7	83	41.8	0	0	---	0.00	30.072 
01:05	46.4	46.4	46.4	83	41.5	0	0	---	0.00	30.070 
01:10	46.1	46.1	46.1	81	40.6	0	0	---	0.00	30.066 
01:15	46.1	46.1	46.1	78	39.6	0	0	---	0.00	30.062 
01:20	46.1	46.1	46.1	76	39.0	0	0	---	0.00	30.061 
01:25	46.0	46.0	46.0	75	38.5	0	0	---	0.00	30.060 
01:30	45.8	45.8	45.8	74	38.0	0	0	---	0.00	30.059 
01:35	45.5	45.5	45.5	74	37.7	0	0	---	0.00	30.058 
01:40	45.5	45.5	45.5	74	37.7	0	0	---	0.00	30.055 
01:45	45.4	45.4	45.4	73	37.3	0	0	---	0.00	30.051 
01:50	45.2	45.2	45.2	74	37.4	0	0	---	0.00	30.049 
01:55	45.1	45.1	45.1	74	37.3	0	0	---	0.00	30.050 
02:00	44.9	44.9	44.9	75	37.5	0	0	---	0.00	30.051 
02:05	44.6	44.6	44.6	75	37.2	0	0	---	0.00	30.048 
02:10	44.5	44.5	44.5	76	37.4	0	0	---	0.00	30.047 
02:15	44.3	44.3	44.3	76	37.2	0	0	---	0.00	30.048 
02:20	44.2	44.2	44.2	77	37.5	0	0	---	0.00	30.049 
02:25	44.1	44.1	44.1	77	37.4	0	0	---	0.00	30.049 
02:30	44.1	44.1	44.1	77	37.4	0	0	---	0.00	30.049 
02:35	44.1	44.1	44.1	77	37.4	0	0	---	0.00	30.048 
02:40	44.1	44.1	44.1	76	37.0	0	0	---	0.00	30.047 
02:45	44.2	44.2	44.2	76	37.1	0	0	---	0.00	30.047 
02:50	44.2	44.2	44.2	75	36.8	0	0	---	0.00	30.047 
02:55	44.2	44.2	44.2	75	36.8	0	0	---	0.00	30.049 
03:00	44.1	44.1	44.1	76	37.0	0	0	---	0.00	30.049 
03:05	44.2	44.2	44.2	78	37.8	0	0	---	0.00	30.051 
03:10	44.2	44.2	44.2	78	37.8	0	0	---	0.00	30.053 
03:15	44.3	44.3	44.3	80	38.5	0	0	---	0.00	30.053 
03:20	44.5	44.5	44.5	81	39.0	0	0	---	0.00	30.050 
03:25	44.3	44.3	44.3	81	38.8	0	0	---	0.00	30.051 
03:30	44.2	44.2	44.2	81	38.7	0	0	---	0.00	30.053 
03:35	44.3	44.3	44.3	84	39.8	0	0	---	0.00	30.053 
03:40	44.5	44.5	44.5	86	40.6	0	0	---	0.00	30.057 
03:45	44.5	44.5	44.5	85	40.3	0	0	---	0.00	30.058 
03:50	44.3	44.3	44.3	85	40.1	0	0	---	0.00	30.059 
03:55	44.2	44.2	44.2	86	40.3	0	0	---	0.00	30.060 
04:00	44.2	44.2	44.2	87	40.6	0	0	---	0.00	30.061 
04:05	44.1	44.1	44.1	86	40.2	0	0	---	0.00	30.062 
04:10	43.8	43.8	43.8	86	39.9	0	0	---	0.00	30.062 
04:15	43.6	43.6	43.6	86	39.7	0	0	---	0.00	30.062 
04:20	43.3	43.3	43.3	86	39.4	0	0	---	0.00	30.062 
04:25	43.2	43.2	43.2	87	39.6	0	0	---	0.00	30.062 
04:30	43.1	43.1	43.1	87	39.5	0	0	---	0.00	30.062 
04:35	42.9	42.9	42.9	87	39.3	0	0	---	0.00	30.063 
04:40	42.8	42.8	42.8	86	38.9	0	0	---	0.00	30.062 
04:45	42.8	42.8	42.8	87	39.2	0	0	---	0.00	30.063 
04:50	42.8	42.8	42.8	87	39.2	0	0	---	0.00	30.066 
04:55	42.8	42.8	42.8	87	39.2	0	0	---	0.00	30.068 
05:00	42.8	42.8	42.8	87	39.2	0	0	---	0.00	30.070 
05:05	42.9	42.9	42.9	88	39.6	0	0	---	0.00	30.069 
05:10	42.8	42.8	42.8	88	39.5	0	0	---	0.00	30.067 
05:15	42.6	42.6	42.6	88	39.3	0	0	---	0.00	30.068 
05:20	42.5	42.5	42.5	88	39.2	0	0	---	0.00	30.070 
05:25	42.5	42.5	42.5	88	39.2	0	0	---	0.00	30.068 
05:30	42.5	42.5	42.5	88	39.2	0	0	---	0.00	30.067 
05:35	42.3	42.3	42.3	88	39.0	0	0	---	0.00	30.070 
05:40	42.3	42.3	42.3	88	39.0	0	0	---	0.00	30.077 
05:45	42.3	42.3	42.3	88	39.0	0	0	---	0.00	30.080 
05:50	42.2	42.2	42.2	87	38.6	0	0	---	0.00	30.082 
05:55	42.1	42.1	42.1	87	38.5	0	0	---	0.00	30.084 
06:00	41.9	41.9	41.9	86	38.0	0	0	---	0.00	30.084 
06:05	42.1	42.1	42.1	84	37.6	0	0	---	0.00	30.086 
06:10	42.3	42.3	42.3	83	37.5	0	0	---	0.00	30.089 
06:15	42.5	42.5	42.5	83	37.7	0	0	---	0.00	30.091 
06:20	42.5	42.5	42.5	83	37.7	0	0	---	0.00	30.094 
06:25	42.5	42.5	42.5	82	37.4	0	0	---	0.00	30.096 
06:30	42.8	42.8	42.8	82	37.7	0	0	---	0.00	30.097 
06:35	43.3	43.3	43.3	81	37.9	0	0	---	0.00	30.097 
06:40	44.2	44.2	44.2	79	38.1	0	0	---	0.00	30.097 
06:45	44.9	44.9	44.9	77	38.1	0	0	---	0.00	30.098 
06:50	46.0	46.0	46.0	76	38.9	0	0	---	0.00	30.098 
06:55	47.4	47.4	47.4	75	39.9	0	0	---	0.00	30.099 
07:00	48.8	48.8	48.8	72	40.2	0	0	---	0.00	30.102 
07:05	50.2	50.2	50.2	68	40.1	0	0	---	0.00	30.108 
07:10	51.9	51.9	51.9	63	39.7	0	1	225	0.00	30.110 
07:15	53.5	53.5	53.5	59	39.5	0	1	225	0.00	30.111 
07:20	54.7	54.7	54.7	58	40.2	0	1	225	0.00	30.112 
07:25	55.7	55.7	55.7	57	40.7	1	2	225	0.00	30.111 
07:30	56.7	56.7	56.7	55	40.7	0	2	225	0.00	30.110 
07:35	57.6	57.6	57.6	55	41.6	0	2	225	0.00	30.112 
07:40	58.4	58.4	58.4	54	41.8	0	1	202	0.00	30.114 
07:45	59.3	59.3	59.3	51	41.2	1	3	202	0.00	30.110 
07:50	60.1	60.1	60.1	51	41.9	1	2	112	0.00	30.109 
07:55	60.9	60.9	60.9	50	42.1	0	1	112	0.00	30.109 
08:00	61.8	61.8	61.8	49	42.4	1	3	112	0.00	30.106 
08:05	62.6	62.6	62.6	49	43.2	2	5	90	0.00	30.109 
08:10	63.2	63.2	63.2	47	42.6	1	4	112	0.00	30.108 
08:15	63.5	63.5	63.5	46	42.3	1	3	90	0.00	30.107 
08:20	63.9	63.9	63.9	43	41.0	2	9	248	0.00	30.105 
08:25	64.0	64.0	64.0	45	42.2	1	3	248	0.00	30.106 
08:30	64.5	64.5	64.5	45	42.7	1	4	225	0.00	30.105 
08:35	65.2	65.2	65.2	45	43.3	1	5	248	0.00	30.102 
08:40	65.6	65.6	65.6	46	44.3	1	5	248	0.00	30.100 
08:45	65.6	65.6	65.6	43	42.5	2	7	248	0.00	30.100 
08:50	66.1	66.1	66.1	42	42.3	1	4	248	0.00	30.101 
08:55	66.6	66.6	66.6	41	42.2	2	6	248	0.00	30.100 
09:00	67.1	67.1	67.1	42	43.2	2	6	270	0.00	30.098 
09:05	67.6	67.6	67.6	43	44.3	2	5	248	0.00	30.103 
09:10	67.9	67.9	67.9	44	45.2	2	6	225	0.00	30.103 
09:15	68.4	68.4	68.4	42	44.4	2	6	248	0.00	30.104 
09:20	68.8	68.8	68.8	39	42.8	2	6	248	0.00	30.104 
09:25	69.3	69.3	69.3	38	42.6	3	7	248	0.00	30.106 
09:30	69.8	69.8	69.8	37	42.3	3	6	248	0.00	30.105 
09:35	69.9	69.9	69.9	36	41.7	3	7	248	0.00	30.099 
09:40	70.3	70.3	70.3	38	43.5	3	7	248	0.00	30.098 
09:45	70.6	70.6	70.6	37	43.1	3	8	248	0.00	30.096 
09:50	71.3	71.3	71.3	36	43.0	2	5	248	0.00	30.099 
09:55	71.8	71.8	71.8	35	42.7	2	6	248	0.00	30.099 
10:00	72.1	72.1	72.1	37	44.4	2	7	90	0.00	30.096 
10:05	72.3	72.3	72.3	33	41.6	2	6	248	0.00	30.093 
10:10	72.1	72.1	72.1	34	42.2	3	10	248	0.00	30.098 
10:15	72.7	72.7	72.7	36	44.2	2	5	248	0.00	30.094 
10:20	73.3	73.3	73.3	33	42.4	2	9	90	0.00	30.092 
10:25	73.0	73.0	73.0	34	43.0	3	9	248	0.00	30.094 
10:30	73.0	73.0	73.0	36	44.5	2	5	270	0.00	30.094 
10:35	73.3	73.3	73.3	36	44.7	2	6	248	0.00	30.095 
10:40	73.5	73.5	73.5	34	43.4	3	7	248	0.00	30.096 
10:45	73.9	73.9	73.9	31	41.3	3	7	248	0.00	30.091 
10:50	74.2	74.2	74.2	35	44.8	2	6	225	0.00	30.089 
10:55	74.6	74.6	74.6	31	42.0	2	6	248	0.00	30.088 
11:00	74.6	74.6	74.6	33	43.6	3	11	248	0.00	30.087 
11:05	74.7	74.7	74.7	31	42.0	2	7	225	0.00	30.088 
11:10	75.3	75.3	77.4	35	45.7	2	6	248	0.00	30.087 
11:15	75.3	75.3	77.3	34	45.0	2	7	248	0.00	30.087 
11:20	75.4	75.4	77.1	31	42.6	3	5	248	0.00	30.085 
11:25	75.8	75.8	77.4	33	44.6	2	6	248	0.00	30.082 
11:30	75.6	75.6	77.3	33	44.5	4	7	248	0.00	30.079 
11:35	75.4	75.4	77.1	30	41.8	4	11	248	0.00	30.077 
11:40	75.6	75.6	77.2	31	42.8	4	9	248	0.00	30.073 
11:45	76.0	76.0	77.5	33	44.8	2	5	248	0.00	30.071 
11:50	76.1	76.1	77.3	30	42.4	4	11	248	0.00	30.069 
11:55	76.3	76.3	77.7	35	46.6	3	6	248	0.00	30.066 
12:00	76.7	76.7	77.9	36	47.7	2	6	248	0.00	30.065 
12:05	76.8	76.8	77.7	31	43.9	3	9	248	0.00	30.066 
12:10	76.7	76.7	77.5	29	42.0	4	11	248	0.00	30.062 
12:15	76.7	76.7	77.4	28	41.1	5	10	248	0.00	30.058 
12:20	76.8	76.8	77.6	30	43.0	4	10	248	0.00	30.056 
12:25	77.2	77.2	77.9	32	45.0	3	9	112	0.00	30.055 
12:30	77.6	77.6	78.1	32	45.4	2	7	248	0.00	30.055 
12:35	77.7	77.7	78.2	33	46.3	2	8	248	0.00	30.054 
12:40	77.6	77.6	77.8	28	41.9	4	10	248	0.00	30.051 
12:45	77.7	77.7	78.0	31	44.6	4	9	248	0.00	30.048 
12:50	77.9	77.9	77.9	27	41.2	4	11	225	0.00	30.042 
12:55	77.9	77.9	78.0	29	43.1	4	10	248	0.00	30.042 
13:00	77.9	77.9	77.9	28	42.1	2	6	270	0.00	30.040 
13:05	78.1	78.1	78.2	30	44.1	3	12	270	0.00	30.040 
13:10	78.3	78.3	78.2	29	43.4	3	5	112	0.00	30.039 
13:15	78.6	78.6	78.4	29	43.7	2	6	248	0.00	30.033 
13:20	78.8	78.8	78.5	29	43.8	3	7	270	0.00	30.031 
13:25	78.8	78.8	78.4	28	42.9	2	6	68	0.00	30.027 
13:30	79.0	79.0	78.4	27	42.1	4	11	90	0.00	30.026 
13:35	79.4	79.4	78.8	30	45.2	2	7	225	0.00	30.024 
13:40	79.0	79.0	78.6	29	44.0	3	10	90	0.00	30.023 
13:45	79.2	79.2	78.5	27	42.3	2	5	225	0.00	30.023 
13:50	79.4	79.4	78.7	27	42.5	3	7	225	0.00	30.021 
13:55	79.2	79.2	78.5	27	42.3	4	10	248	0.00	30.018 
14:00	79.4	79.4	78.7	27	42.5	3	9	248	0.00	30.012 
14:05	79.9	79.9	79.0	28	43.9	3	9	248	0.00	30.012 
14:10	79.8	79.8	78.9	28	43.8	5	12	248	0.00	30.009 
14:15	79.8	79.8	79.1	30	45.6	4	10	270	0.00	30.008 
14:20	80.3	80.3	79.0	25	41.2	4	9	248	0.00	30.007 
14:25	80.5	80.5	79.2	25	41.4	4	11	248	0.00	30.007 
14:30	80.7	80.7	79.3	25	41.6	4	12	248	0.00	30.006 
14:35	80.7	80.7	79.4	27	43.6	3	9	270	0.00	30.004 
14:40	81.1	81.1	79.7	27	43.9	1	5	270	0.00	29.999 
14:45	80.5	80.5	79.2	25	41.4	4	11	45	0.00	29.993 
14:50	80.1	80.1	79.1	28	44.0	2	6	68	0.00	29.993 
14:55	80.1	80.1	79.1	28	44.0	2	6	22	0.00	29.993 
15:00	80.3	80.3	79.1	26	42.3	3	6	248	0.00	29.991 
15:05	80.3	80.3	79.2	27	43.2	3	7	248	0.00	29.991 
15:10	80.3	80.3	79.2	27	43.2	2	6	112	0.00	29.982 
15:15	80.1	80.1	79.1	27	43.1	2	7	22	0.00	29.982 
15:20	80.1	80.1	79.1	27	43.1	3	7	248	0.00	29.980 
15:25	80.9	80.9	79.5	26	42.8	3	9	248	0.00	29.977 
15:30	81.1	81.1	79.7	27	43.9	3	9	270	0.00	29.975 
15:35	80.7	80.7	79.4	27	43.6	3	8	248	0.00	29.975 
15:40	80.5	80.5	79.4	28	44.4	2	7	248	0.00	29.970 
15:45	80.1	80.1	79.1	27	43.1	4	10	90	0.00	29.967 
15:50	80.3	80.3	79.2	28	44.2	2	9	248	0.00	29.966 
15:55	80.5	80.5	79.3	27	43.4	5	13	248	0.00	29.965 
16:00	80.1	80.1	79.0	26	42.1	2	7	68	0.00	29.963 
16:05	80.3	80.3	79.2	27	43.2	3	9	248	0.00	29.964 
16:10	80.9	80.9	79.4	25	41.8	3	9	248	0.00	29.962 
16:15	80.7	80.7	79.2	24	40.5	5	10	248	0.00	29.960 
16:20	80.3	80.3	79.2	27	43.2	3	9	292	0.00	29.961 
16:25	79.8	79.8	78.9	28	43.8	3	11	68	0.00	29.962 
16:30	79.4	79.4	78.7	27	42.5	3	10	270	0.00	29.962 
16:35	79.2	79.2	78.5	27	42.3	2	7	248	0.00	29.962 
16:40	79.6	79.6	78.6	25	40.7	4	11	270	0.00	29.962 
16:45	79.8	79.8	78.8	25	40.8	3	9	248	0.00	29.961 
16:50	79.4	79.4	78.6	26	41.5	4	10	248	0.00	29.960 
16:55	79.0	79.0	78.6	29	44.0	3	7	90	0.00	29.957 
17:00	78.6	78.6	78.2	27	41.8	2	5	90	0.00	29.954 
17:05	78.6	78.6	78.3	28	42.7	2	5	225	0.00	29.955 
17:10	78.8	78.8	78.4	28	42.9	3	7	248	0.00	29.956 
17:15	78.6	78.6	78.2	27	41.8	3	7	248	0.00	29.955 
17:20	78.6	78.6	78.3	28	42.7	2	9	248	0.00	29.955 
17:25	78.5	78.5	78.2	27	41.7	2	9	22	0.00	29.953 
17:30	77.9	77.9	77.9	28	42.1	2	4	112	0.00	29.953 
17:35	77.6	77.6	77.8	28	41.9	2	5	45	0.00	29.950 
17:40	77.6	77.6	77.9	29	42.8	1	4	90	0.00	29.949 
17:45	77.4	77.4	77.7	28	41.7	3	11	90	0.00	29.949 
17:50	77.0	77.0	77.5	28	41.4	2	7	248	0.00	29.948 
17:55	76.8	76.8	77.5	28	41.2	2	6	90	0.00	29.944 
18:00	76.8	76.8	77.5	28	41.2	2	7	0	0.00	29.942 
18:05	76.7	76.7	77.5	30	42.9	1	5	90	0.00	29.936 
18:10	76.5	76.5	77.5	30	42.7	2	5	248	0.00	29.935 
18:15	76.5	76.5	77.4	29	41.9	2	6	248	0.00	29.933 
18:20	76.3	76.3	77.4	30	42.6	1	4	248	0.00	29.933 
18:25	76.1	76.1	77.4	31	43.3	1	5	202	0.00	29.935 
18:30	76.0	76.0	77.3	31	43.2	1	7	0	0.00	29.934 
18:35	75.8	75.8	77.3	31	43.0	1	4	270	0.00	29.936 
18:40	75.4	75.4	77.3	33	44.3	2	6	225	0.00	29.934 
18:45	75.3	75.3	77.2	32	43.4	2	4	68	0.00	29.932 
18:50	74.9	74.9	74.9	33	43.8	1	3	338	0.00	29.931 
18:55	74.9	74.9	74.9	33	43.8	2	8	112	0.00	29.930 
19:00	74.9	74.9	74.9	33	43.8	2	6	112	0.00	29.929 
19:05	74.6	74.6	74.6	33	43.6	2	7	90	0.00	29.920 
19:10	74.6	74.6	74.6	33	43.6	3	7	90	0.00	29.920 
19:15	74.4	74.4	74.4	34	44.2	2	5	112	0.00	29.920 
19:20	73.9	73.9	73.9	34	43.7	2	4	90	0.00	29.920 
19:25	73.5	73.5	73.5	35	44.2	2	4	90	0.00	29.921 
19:30	73.2	73.2	73.2	35	43.9	2	6	112	0.00	29.924 
19:35	72.8	72.8	72.8	35	43.5	2	6	112	0.00	29.925 
19:40	72.7	72.7	72.7	36	44.2	1	4	90	0.00	29.929 
19:45	72.3	72.3	72.3	35	43.1	2	7	180	0.00	29.930 
19:50	72.1	72.1	72.1	35	42.9	2	6	90	0.00	29.931 
19:55	72.0	72.0	72.0	36	43.6	1	6	45	0.00	29.931 
20:00	71.6	71.6	71.6	36	43.2	1	5	90	0.00	29.934 
20:05	71.3	71.3	71.3	37	43.7	1	2	90	0.00	29.932 
20:10	70.9	70.9	70.9	39	44.7	1	3	90	0.00	29.933 
20:15	70.8	70.8	70.8	39	44.6	1	2	90	0.00	29.932 
20:20	70.8	70.8	70.8	39	44.6	1	3	0	0.00	29.932 
20:25	70.6	70.6	70.6	39	44.4	1	4	0	0.00	29.933 
20:30	70.4	70.4	70.4	40	44.9	0	2	68	0.00	29.933 
20:35	70.4	70.4	70.4	40	44.9	1	4	270	0.00	29.934 
20:40	70.1	70.1	70.1	40	44.6	1	4	270	0.00	29.933 
20:45	70.3	70.3	70.3	41	45.5	1	5	135	0.00	29.932 
20:50	70.3	70.3	70.3	41	45.5	1	4	292	0.00	29.933 
20:55	69.9	69.9	69.9	41	45.1	0	3	292	0.00	29.933 
21:00	69.9	69.9	69.9	41	45.1	1	3	292	0.00	29.933 
21:05	69.9	69.9	69.9	41	45.1	1	5	292	0.00	29.927 
21:10	69.8	69.8	69.8	41	45.0	1	4	270	0.00	29.927 
21:15	69.8	69.8	69.8	41	45.0	2	4	90	0.00	29.927 
21:20	69.9	69.9	69.9	40	44.5	1	7	315	0.00	29.925 
21:25	69.8	69.8	69.8	40	44.4	1	4	68	0.00	29.927 
21:30	69.6	69.6	69.6	41	44.8	1	4	22	0.00	29.924 
21:35	69.4	69.4	69.4	41	44.7	1	3	0	0.00	29.926 
21:40	69.3	69.3	69.3	41	44.6	1	7	90	0.00	29.928 
21:45	69.1	69.1	69.1	42	45.0	1	3	90	0.00	29.926 
21:50	68.8	68.8	68.8	42	44.8	2	5	45	0.00	29.927 
21:55	68.6	68.6	68.6	43	45.2	1	2	112	0.00	29.923 
22:00	68.4	68.4	68.4	43	45.0	1	3	112	0.00	29.920 
22:05	68.1	68.1	68.1	44	45.4	1	3	68	0.00	29.921 
22:10	67.8	67.8	67.8	44	45.1	1	4	68	0.00	29.920 
22:15	67.6	67.6	67.6	45	45.5	1	3	68	0.00	29.923 
22:20	67.3	67.3	67.3	45	45.2	1	3	270	0.00	29.924 
22:25	67.1	67.1	67.1	45	45.0	1	3	338	0.00	29.925 
22:30	67.1	67.1	67.1	45	45.0	1	3	225	0.00	29.924 
22:35	66.8	66.8	66.8	46	45.3	1	3	112	0.00	29.924 
22:40	66.4	66.4	66.4	46	45.0	0	3	292	0.00	29.923 
22:45	66.3	66.3	66.3	46	44.9	1	3	22	0.00	29.924 
22:50	66.3	66.3	66.3	47	45.5	1	3	0	0.00	29.922 
22:55	66.1	66.1	66.1	46	44.7	1	5	270	0.00	29.919 
23:00	66.1	66.1	66.1	46	44.7	2	3	90	0.00	29.917 
23:05	66.0	66.0	66.0	47	45.2	1	4	90	0.00	29.914 
23:10	65.8	65.8	65.8	46	44.4	2	5	45	0.00	29.913 
23:15	65.8	65.8	65.8	46	44.4	2	9	315	0.00	29.911 
23:20	65.8	65.8	65.8	47	45.0	1	6	22	0.00	29.907 
23:25	65.8	65.8	65.8	47	45.0	1	5	248	0.00	29.906 
23:30	65.6	65.6	65.6	47	44.8	1	5	68	0.00	29.902 
23:35	65.6	65.6	65.6	46	44.3	1	3	338	0.00	29.901 
23:40	65.8	65.8	65.8	46	44.4	2	6	45	0.00	29.900 
23:45	65.8	65.8	65.8	46	44.4	2	12	45	0.00	29.901 
23:50	66.0	66.0	66.0	46	44.6	2	5	248	0.00	29.903 
23:55	66.0	66.0	66.0	46	44.6	2	5	248	0.00	29.902 

CoCoRaHS
IN-AL-39
A2 Web Hosting
Creative Commons License
GoDaddy
Look for:

loaded 2017-12-11 14:29:21 • last modified 2010-11-18 10:43:29
Privacy PolicyDisclaimer
• wx.awcolley.com is powered by PmWiki v.2002016 •
• all content (unless otherwise noted) © 2017 A W Colley